DW9685 Weather Reports


Display with metric or nautical units.
time (UTC)temp
F
wind
direction
speed
MPH
gust
MPH
rain 1hr
in
rain 24hr
in
rain mn
in
humidity
%
barometer
mb
20191018191510 54 360 10.0 19.0 0.00 0.03 0.01 36 1011.4
20191018190227 53 360 5.0 20.0 0.00 0.03 0.01 36 1011.5
20191018184700 53 360 10.0 18.0 0.00 0.03 0.01 36 1011.4
20191018183209 52 360 10.0 20.0 0.00 0.03 0.01 36 1011.4
20191018181604 52 360 9.0 19.0 0.00 0.03 0.01 36 1011.3
20191018180148 52 360 8.0 21.0 0.00 0.03 0.01 36 1011.3
20191018174648 51 360 9.0 19.0 0.00 0.03 0.01 37 1011.5
20191018173152 50 360 6.0 16.0 0.00 0.03 0.01 37 1011.4
20191018171618 49 360 8.0 16.0 0.00 0.03 0.01 37 1011.3
20191018170117 48 360 5.0 7.0 0.00 0.03 0.01 37 1011.2
20191018164646 48 360 6.0 16.0 0.00 0.03 0.01 37 1011.2
20191018163143 47 360 6.0 16.0 0.00 0.03 0.01 38 1010.9
20191018161659 46 360 7.0 14.0 0.00 0.03 0.01 38 1010.7
20191018160146 45 360 8.0 14.0 0.00 0.03 0.01 39 1010.6
20191018154706 44 360 7.0 14.0 0.00 0.03 0.01 39 1010.2
20191018153120 43 360 5.0 13.0 0.00 0.03 0.01 39 1010.1
20191018151544 43 360 5.0 13.0 0.00 0.03 0.01 39 1009.6
20191018150126 43 360 4.0 7.0 0.00 0.03 0.01 38 1009.7
20191018144610 43 360 5.0 7.0 0.00 0.03 0.01 38 1009.3
20191018143057 42 360 5.0 12.0 0.00 0.03 0.01 38 1008.8
20191018141533 42 360 5.0 6.0 0.00 0.03 0.01 39 1008.7
20191018140109 42 360 5.0 14.0 0.00 0.03 0.01 39 1008.8
20191018134548 42 360 5.0 16.0 0.00 0.03 0.01 39 1008.6
20191018133041 42 360 5.0 14.0 0.00 0.03 0.01 39 1008.4
20191018131536 42 360 5.0 12.0 0.00 0.03 0.01 39 1008.2
20191018130043 41 360 4.0 12.0 0.00 0.03 0.01 39 1007.9
20191018124540 42 360 2.0 7.0 0.00 0.03 0.01 39 1007.8
20191018123016 42 360 2.0 10.0 0.00 0.03 0.01 39 1007.9
20191018121540 42 360 0.0 3.0 0.00 0.03 0.01 39 1007.7
20191018120009 43 360 4.0 10.0 0.01 0.03 0.01 39 1007.4
20191018114511 43 360 6.0 9.0 0.01 0.03 0.01 39 1007.0
20191018113013 43 360 0.0 4.0 0.01 0.03 0.01 39 1007.0
20191018111523 43 360 4.0 13.0 0.01 0.03 0.01 39 1006.9
20191018110201 43 360 5.0 11.0 0.00 0.02 0.00 39 1006.5
20191018104740 43 360 3.0 10.0 0.00 0.02 0.00 39 1006.3
20191018103209 43 360 8.0 11.0 0.00 0.02 0.00 39 1006.4
20191018101725 44 360 2.0 6.0 0.00 0.02 0.00 39 1006.4
20191018100211 44 360 1.0 6.0 0.00 0.02 0.00 39 1006.3
20191018094653 44 360 6.0 9.0 0.00 0.02 0.00 39 1006.3
20191018093157 45 360 0.0 1.0 0.00 0.02 0.00 39 1006.0
20191018091633 45 360 0.0 1.0 0.00 0.02 0.00 39 1005.9
20191018090127 46 360 0.0 8.0 0.00 0.02 0.00 39 1005.8
20191018084649 47 360 4.0 9.0 0.00 0.04 0.00 38 1005.6
20191018083119 48 360 6.0 13.0 0.00 0.04 0.00 38 1005.2
20191018081631 48 360 7.0 16.0 0.00 0.04 0.00 38 1005.1
20191018080114 48 360 6.0 14.0 0.00 0.04 0.00 38 1004.6
20191018074552 49 360 5.0 7.0 0.00 0.04 0.00 38 1004.7
20191018073117 49 360 5.0 8.0 0.00 0.04 0.00 38 1004.8
20191018071545 49 360 5.0 15.0 0.00 0.04 0.00 38 1004.5
20191018070039 48 360 4.0 10.0 0.01 0.04 0.00 39 1004.6
20191018064544 48 360 3.0 7.0 0.01 0.06 0.04 39 1004.7
20191018063040 48 360 3.0 9.0 0.01 0.06 0.04 39 1004.6
20191018061549 48 360 8.0 13.0 0.01 0.06 0.04 39 1004.7
20191018060034 49 360 4.0 14.0 0.00 0.05 0.03 38 1004.8
20191018054532 50 360 10.0 16.0 0.00 0.06 0.03 38 1004.6
20191018053104 51 360 10.0 16.0 0.00 0.06 0.03 37 1004.6
20191018051542 51 360 12.0 17.0 0.00 0.06 0.03 37 1004.8
20191018050046 52 360 10.0 15.0 0.00 0.06 0.03 37 1004.6
20191018044549 52 360 12.0 19.0 0.00 0.06 0.03 37 1004.5
20191018043023 51 360 10.0 15.0 0.00 0.06 0.03 37 1004.4
20191018041618 50 360 10.0 16.0 0.00 0.06 0.03 37 1004.4
20191018040043 50 360 9.0 17.0 0.00 0.06 0.03 37 1004.2
20191018034532 51 360 7.0 21.0 0.00 0.06 0.03 37 1004.1
20191018033035 51 360 10.0 20.0 0.00 0.06 0.03 37 1004.0
20191018031534 49 360 11.0 14.0 0.00 0.06 0.03 37 1004.2
20191018030034 50 360 7.0 11.0 0.00 0.06 0.03 37 1004.4
20191018024546 51 360 4.0 6.0 0.00 0.06 0.03 37 1004.3
20191018023028 51 360 10.0 15.0 0.00 0.06 0.03 37 1004.4
20191018021524 51 360 11.0 17.0 0.00 0.06 0.03 37 1004.5
20191018020111 52 360 12.0 19.0 0.00 0.06 0.03 37 1004.5
20191018014526 51 360 7.0 15.0 0.00 0.06 0.03 37 1004.8
20191018013045 52 360 5.0 7.0 0.00 0.06 0.03 37 1004.7
20191018011519 52 360 13.0 18.0 0.00 0.06 0.03 37 1004.7
20191018010016 52 360 11.0 17.0 0.00 0.06 0.03 37 1004.7
20191018004535 53 360 7.0 13.0 0.00 0.06 0.03 37 1004.7
20191018003015 54 360 11.0 21.0 0.00 0.06 0.03 36 1004.8
20191018001518 55 360 12.0 23.0 0.00 0.06 0.03 36 1004.5
20191018000022 56 360 11.0 23.0 0.00 0.06 0.03 36 1004.5
20191017234513 57 360 13.0 24.0 0.00 0.06 0.03 36 1004.6
20191017233037 57 360 7.0 28.0 0.00 0.06 0.03 36 1004.5
20191017231511 56 360 11.0 21.0 0.00 0.06 0.03 36 1004.9
20191017230025 56 360 6.0 19.0 0.00 0.06 0.03 36 1004.8
20191017224534 58 360 14.0 23.0 0.00 0.06 0.03 36 1004.6
20191017223018 57 360 9.0 20.0 0.00 0.06 0.03 36 1004.6
20191017221541 56 360 14.0 24.0 0.00 0.06 0.03 36 1004.8
20191017220031 56 360 5.0 17.0 0.00 0.06 0.03 36 1004.7
20191017214512 56 360 10.0 20.0 0.00 0.06 0.03 36 1004.6
20191017213012 57 360 7.0 18.0 0.00 0.06 0.03 36 1004.3
20191017211508 57 360 9.0 20.0 0.00 0.06 0.03 36 1004.4
20191017210015 58 360 6.0 22.0 0.00 0.06 0.03 36 1004.3
20191017204510 58 360 11.0 22.0 0.00 0.06 0.03 36 1004.5
20191017203025 58 360 8.0 17.0 0.00 0.06 0.03 36 1004.4
20191017201515 58 360 7.0 20.0 0.00 0.06 0.03 36 1004.4
20191017200010 57 360 5.0 8.0 0.01 0.06 0.03 37 1004.6
20191017194504 57 360 10.0 21.0 0.01 0.06 0.03 37 1004.6
20191017193158 56 360 6.0 14.0 0.01 0.06 0.03 37 1004.6